Time;durP1;ratioP1;P1;durP2;ratioP2;P2;SDS_P1;SDS_P2;PMS_P1;PMS_P2;Temp;Humidity;BMP_temperature;BMP_pressure;BME280_temperature;BME280_humidity;BME280_pressure;Samples;Min_cycle;Max_cycle;Signal;HPM_P1;HPM_P2
2022/11/22 17:31:17;;;;;;;3.37;1.87;;;;;;;6.44;100.00;99152.87;1804152;78;21124;-69
2022/11/22 17:33:51;;;;;;;2.47;1.40;;;;;;;6.46;100.00;99151.38;1763704;79;21320;-64
2022/11/22 17:36:30;;;;;;;2.30;1.20;;;;;;;6.43;100.00;99156.42;1761259;79;21282;-64
2022/11/22 17:38:58;;;;;;;2.43;1.40;;;;;;;6.42;100.00;99156.61;1774534;79;21326;-68
2022/11/22 17:41:25;;;;;;;2.50;1.20;;;;;;;6.35;100.00;99155.23;1756967;80;21283;-64
2022/11/22 17:43:53;;;;;;;2.80;1.33;;;;;;;6.31;100.00;99154.80;1774277;79;21056;-65
2022/11/22 17:46:20;;;;;;;2.37;1.20;;;;;;;6.32;100.00;99147.83;1762268;79;21318;-74
2022/11/22 17:48:52;;;;;;;2.60;1.03;;;;;;;6.28;100.00;99147.39;1759208;79;21272;-74
2022/11/22 17:51:20;;;;;;;1.67;0.70;;;;;;;6.19;100.00;99151.09;1764858;79;21298;-65
2022/11/22 17:53:47;;;;;;;2.10;1.00;;;;;;;6.12;100.00;99148.11;1765813;79;21385;-65
2022/11/22 17:56:15;;;;;;;2.60;1.17;;;;;;;6.06;100.00;99151.74;1778153;79;21797;-65
2022/11/22 17:58:42;;;;;;;1.30;0.60;;;;;;;6.03;100.00;99144.83;1795269;78;21832;-66
2022/11/22 18:01:17;;;;;;;1.83;0.80;;;;;;;5.97;100.00;99150.22;1776337;79;21385;-65
2022/11/22 18:03:44;;;;;;;2.43;0.97;;;;;;;5.91;100.00;99154.81;1774520;79;21110;-65
2022/11/22 18:06:12;;;;;;;2.00;1.00;;;;;;;5.90;100.00;99149.80;1759325;80;21318;-72
2022/11/22 18:08:39;;;;;;;1.60;0.60;;;;;;;5.90;100.00;99144.12;1775671;78;21292;-63
2022/11/22 18:11:07;;;;;;;1.97;0.90;;;;;;;5.78;100.00;99140.41;1770043;78;21058;-70
2022/11/22 18:13:37;;;;;;;1.60;0.70;;;;;;;5.67;100.00;99139.55;1789991;78;21326;-64
2022/11/22 18:16:07;;;;;;;1.87;0.97;;;;;;;5.61;100.00;99144.47;1749200;80;21778;-64
2022/11/22 18:18:35;;;;;;;2.20;0.90;;;;;;;5.57;100.00;99156.14;1752199;80;21116;-64
2022/11/22 18:21:02;;;;;;;1.90;0.90;;;;;;;5.52;100.00;99163.61;1757782;80;21010;-69
2022/11/22 18:23:34;;;;;;;2.20;0.80;;;;;;;5.49;100.00;99168.33;1760917;79;21220;-64
2022/11/22 18:26:03;;;;;;;;;;;;;;;5.39;100.00;99165.22;1764223;79;21842;-63
2022/11/22 18:28:33;;;;;;;2.00;0.90;;;;;;;5.42;100.00;99151.92;1749603;80;20116;-64
2022/11/22 18:31:00;;;;;;;2.13;1.00;;;;;;;5.37;100.00;99149.88;1761606;80;21335;-64
2022/11/22 18:33:27;;;;;;;2.00;0.90;;;;;;;5.33;100.00;99162.34;1788402;78;21299;-64
2022/11/22 18:36:04;;;;;;;2.10;1.00;;;;;;;5.27;100.00;99154.51;1782887;78;21734;-63
2022/11/22 18:38:31;;;;;;;2.13;1.00;;;;;;;5.25;100.00;99146.12;1763309;79;21744;-65
2022/11/22 18:41:00;;;;;;;3.40;1.40;;;;;;;5.23;100.00;99155.84;1764098;79;21401;-72
2022/11/22 18:43:27;;;;;;;2.20;0.93;;;;;;;5.19;100.00;99163.59;1763506;79;21271;-63
2022/11/22 18:46:04;;;;;;;2.40;1.27;;;;;;;5.20;100.00;99174.27;1764587;79;22033;-71
2022/11/22 18:48:31;;;;;;;2.70;1.10;;;;;;;5.17;100.00;99181.87;1761321;79;21472;-64
2022/11/22 18:51:06;;;;;;;2.17;1.10;;;;;;;5.08;100.00;99185.02;1764594;80;21297;-65
2022/11/22 18:53:31;;;;;;;2.53;1.10;;;;;;;5.07;100.00;99192.42;1760241;80;21280;-63
2022/11/22 18:56:03;;;;;;;2.70;1.40;;;;;;;5.04;100.00;99199.25;1765202;79;21187;-71
2022/11/22 18:58:31;;;;;;;2.97;1.37;;;;;;;5.03;100.00;99198.91;1774270;79;21251;-63
2022/11/22 19:00:58;;;;;;;2.73;1.53;;;;;;;4.98;100.00;99204.30;1760209;79;21298;-67
2022/11/22 19:03:25;;;;;;;3.17;1.97;;;;;;;4.90;100.00;99200.00;1761373;80;21175;-65
2022/11/22 19:05:53;;;;;;;3.17;1.80;;;;;;;4.85;100.00;99203.59;1758948;80;21151;-62
2022/11/22 19:08:20;;;;;;;6.30;1.93;;;;;;;4.82;100.00;99215.06;1760776;79;21782;-63
2022/11/22 19:10:56;;;;;;;4.00;2.00;;;;;;;4.79;100.00;99218.47;1769566;79;22737;-63
2022/11/22 19:13:23;;;;;;;4.70;2.53;;;;;;;4.79;100.00;99218.47;1765278;79;21305;-64
2022/11/22 19:15:50;;;;;;;6.47;2.87;;;;;;;4.78;100.00;99219.45;1762712;79;21222;-64
2022/11/22 19:18:19;;;;;;;5.20;2.40;;;;;;;4.74;100.00;99224.15;1763123;79;21794;-64
2022/11/22 19:20:47;;;;;;;4.37;2.00;;;;;;;4.72;100.00;99224.79;1763482;80;21202;-64
2022/11/22 19:23:15;;;;;;;5.23;2.83;;;;;;;4.71;100.00;99231.42;1758117;80;21248;-67
2022/11/22 19:25:43;;;;;;;4.53;2.57;;;;;;;4.68;100.00;99233.85;1760643;79;21499;-65
2022/11/22 19:28:10;;;;;;;4.20;2.40;;;;;;;4.68;100.00;99233.85;1753802;80;21352;-72
2022/11/22 19:30:38;;;;;;;6.57;2.77;;;;;;;4.64;100.00;99235.17;1755866;80;21240;-63
2022/11/22 19:33:05;;;;;;;6.22;2.85;;;;;;;4.58;100.00;99236.66;1766407;79;21321;-63
2022/11/22 19:35:35;;;;;;;6.30;3.12;;;;;;;4.55;100.00;99233.13;1762455;79;21002;-64
2022/11/22 19:38:02;;;;;;;4.23;2.20;;;;;;;4.52;100.00;99235.23;1764252;79;21039;-63
2022/11/22 19:40:29;;;;;;;4.17;2.57;;;;;;;4.44;100.00;99236.57;1761370;79;21207;-64
2022/11/22 19:42:56;;;;;;;3.42;2.37;;;;;;;4.45;100.00;99229.94;1763923;79;21282;-63
2022/11/22 19:45:25;;;;;;;3.77;2.20;;;;;;;4.32;100.00;99234.36;1762187;79;21111;-65
2022/11/22 19:47:52;;;;;;;2.58;1.42;;;;;;;4.21;100.00;99236.02;1761680;79;21391;-63
2022/11/22 19:50:19;;;;;;;2.55;1.60;;;;;;;4.23;100.00;99240.50;1767773;79;21041;-62
2022/11/22 19:52:47;;;;;;;3.33;1.90;;;;;;;4.22;100.00;99240.20;1763066;79;21240;-65
2022/11/22 19:55:15;;;;;;;2.67;1.60;;;;;;;4.21;100.00;99240.38;1766410;79;22233;-65
2022/11/22 19:57:43;;;;;;;2.60;1.45;;;;;;;4.05;100.00;99244.61;1760893;79;21105;-63
2022/11/22 20:00:11;;;;;;;3.17;1.70;;;;;;;4.01;100.00;99248.95;1764191;79;20975;-63
2022/11/22 22:07:40;;;;;;;2.43;1.50;;;;;;;1.62;100.00;99412.19;1823976;77;22403;-63
2022/11/22 22:10:08;;;;;;;2.70;1.60;;;;;;;1.61;100.00;99415.25;1793909;78;21610;-67
2022/11/22 22:12:40;;;;;;;3.20;1.65;;;;;;;1.67;100.00;99419.01;1799000;79;21030;-61
2022/11/22 22:15:11;;;;;;;2.50;1.37;;;;;;;1.71;100.00;99419.05;1799782;79;20943;-64
2022/11/22 22:17:37;;;;;;;2.55;1.62;;;;;;;1.73;100.00;99412.46;1783123;79;20977;-62
2022/11/22 22:20:06;;;;;;;3.02;1.70;;;;;;;1.64;100.00;99412.39;1776792;79;20856;-63
2022/11/22 22:22:36;;;;;;;2.70;1.55;;;;;;;1.55;100.00;99423.52;1793561;79;21634;-62
2022/11/22 22:25:04;;;;;;;3.05;1.70;;;;;;;1.56;100.00;99414.89;1794685;79;21159;-66
2022/11/22 22:27:32;;;;;;;3.22;1.90;;;;;;;1.55;100.00;99415.81;1788092;79;22382;-63
2022/11/22 22:30:00;;;;;;;3.20;1.67;;;;;;;1.55;100.00;99419.67;1807635;79;21374;-62
2022/11/22 22:32:27;;;;;;;3.67;2.10;;;;;;;1.58;100.00;99427.09;1798847;78;21002;-63
2022/11/22 22:34:55;;;;;;;3.77;2.65;;;;;;;1.56;100.00;99428.20;1760129;80;20996;-61
2022/11/22 22:37:22;;;;;;;3.45;2.25;;;;;;;1.56;100.00;99432.86;1782633;80;21201;-68
2022/11/22 22:39:50;;;;;;;3.35;2.05;;;;;;;1.58;100.00;99433.99;1802328;78;21016;-62
2022/11/22 22:42:17;;;;;;;3.67;2.15;;;;;;;1.61;100.00;99433.23;1778756;79;20919;-62
2022/11/22 22:44:44;;;;;;;4.03;2.75;;;;;;;1.63;100.00;99439.04;1765539;80;21009;-62
2022/11/22 22:47:11;;;;;;;4.03;2.37;;;;;;;1.52;100.00;99436.67;1789954;79;21046;-61
2022/11/22 22:49:38;;;;;;;3.22;1.80;;;;;;;1.45;100.00;99435.16;1794870;78;21214;-61
2022/11/22 22:52:05;;;;;;;3.77;2.08;;;;;;;1.45;100.00;99443.34;1797324;78;21050;-61
2022/11/22 22:54:34;;;;;;;2.55;1.70;;;;;;;1.39;100.00;99448.56;1789721;78;21043;-61
2022/11/22 22:57:02;;;;;;;3.50;1.67;;;;;;;1.33;100.00;99457.34;1775637;79;20910;-64
2022/11/22 22:59:30;;;;;;;3.10;1.72;;;;;;;1.31;100.00;99457.94;1787035;79;21485;-69
2022/11/22 23:01:58;;;;;;;2.85;1.50;;;;;;;1.42;100.00;99462.88;1783080;78;22731;-67
2022/11/22 23:04:25;;;;;;;3.17;1.77;;;;;;;1.53;100.00;99464.45;1805318;79;20924;-61
2022/11/22 23:06:52;;;;;;;2.70;1.70;;;;;;;1.51;100.00;99465.86;1796427;79;21062;-60
2022/11/22 23:09:20;;;;;;;2.85;1.72;;;;;;;1.48;100.00;99462.31;1788108;79;21752;-68
2022/11/22 23:14:33;;;;;;;3.33;2.10;;;;;;;1.48;100.00;99477.73;1803057;79;21167;-69
2022/11/22 23:17:02;;;;;;;4.20;2.37;;;;;;;1.51;100.00;99486.41;1772506;80;21444;-61
2022/11/22 23:19:29;;;;;;;5.00;2.58;;;;;;;1.50;100.00;99486.56;1774296;80;20983;-61
2022/11/22 23:21:57;;;;;;;3.80;2.17;;;;;;;1.51;100.00;99490.73;1800150;79;21277;-61
2022/11/22 23:24:24;;;;;;;3.52;2.17;;;;;;;1.50;100.00;99493.79;1766638;80;20968;-62
2022/11/22 23:26:51;;;;;;;3.25;2.00;;;;;;;1.50;100.00;99498.12;1772361;80;21271;-61
2022/11/22 23:29:18;;;;;;;4.10;2.40;;;;;;;1.41;100.00;99507.02;1768635;80;20971;-68
2022/11/22 23:31:46;;;;;;;3.17;2.00;;;;;;;1.46;100.00;99507.39;1796232;79;20960;-66
2022/11/22 23:34:13;;;;;;;4.05;2.50;;;;;;;1.43;100.00;99517.14;1767123;79;20974;-62
2022/11/22 23:36:42;;;;;;;3.75;2.22;;;;;;;1.46;100.00;99511.72;1777079;80;21634;-61
2022/11/22 23:39:09;;;;;;;3.80;2.20;;;;;;;1.52;100.00;99512.45;1772849;80;21266;-61
2022/11/22 23:41:36;;;;;;;3.83;2.40;;;;;;;1.51;100.00;99517.23;1762893;80;21552;-60
2022/11/22 23:44:04;;;;;;;4.10;2.52;;;;;;;1.50;100.00;99523.33;1777309;79;21407;-60
2022/11/22 23:46:31;;;;;;;3.90;2.65;;;;;;;1.46;100.00;99527.13;1776451;80;20973;-61
2022/11/22 23:48:59;;;;;;;3.80;2.33;;;;;;;1.39;100.00;99541.00;1795009;79;20990;-61
2022/11/22 23:51:27;;;;;;;3.72;2.50;;;;;;;1.37;100.00;99542.11;1788687;79;21157;-68
2022/11/22 23:54:00;;;;;;;4.20;2.47;;;;;;;1.29;100.00;99543.27;1802186;79;21156;-59
2022/11/22 23:56:28;;;;;;;4.40;2.65;;;;;;;1.28;100.00;99546.31;1798992;79;20995;-58
2022/11/22 23:58:56;;;;;;;4.85;3.12;;;;;;;1.34;100.00;99548.81;1802770;79;20967;-59
